sensor_id;sensor_type;location;lat;lon;timestamp;pressure;altitude;pressure_sealevel;temperature;humidity
71956;BME280;59829;50.562;6.258;2024-01-15T00:09:49;94441.41;;;5.59;72.69
71956;BME280;59829;50.562;6.258;2024-01-15T00:19:49;94447.56;;;5.57;72.68
71956;BME280;59829;50.562;6.258;2024-01-15T00:29:50;94433.13;;;5.57;72.38
71956;BME280;59829;50.562;6.258;2024-01-15T00:39:54;94430.56;;;5.57;72.58
71956;BME280;59829;50.562;6.258;2024-01-15T00:49:55;94414.63;;;5.55;72.68
71956;BME280;59829;50.562;6.258;2024-01-15T00:59:55;94402.84;;;5.54;72.64
71956;BME280;59829;50.562;6.258;2024-01-15T01:09:56;94416.50;;;5.53;72.34
71956;BME280;59829;50.562;6.258;2024-01-15T01:19:56;94401.38;;;5.52;72.45
71956;BME280;59829;50.562;6.258;2024-01-15T01:29:56;94401.50;;;5.50;72.66
71956;BME280;59829;50.562;6.258;2024-01-15T01:39:56;94385.59;;;5.48;72.85
71956;BME280;59829;50.562;6.258;2024-01-15T01:49:57;94399.91;;;5.49;72.47
71956;BME280;59829;50.562;6.258;2024-01-15T01:59:58;94392.97;;;5.51;72.63
71956;BME280;59829;50.562;6.258;2024-01-15T02:09:58;94386.28;;;5.50;72.68
71956;BME280;59829;50.562;6.258;2024-01-15T02:19:58;94394.81;;;5.49;72.73
71956;BME280;59829;50.562;6.258;2024-01-15T02:29:58;94388.13;;;5.48;72.69
71956;BME280;59829;50.562;6.258;2024-01-15T02:39:59;94398.28;;;5.48;72.74
71956;BME280;59829;50.562;6.258;2024-01-15T02:49:59;94391.59;;;5.47;72.61
71956;BME280;59829;50.562;6.258;2024-01-15T02:59:59;94381.44;;;5.47;72.64
71956;BME280;59829;50.562;6.258;2024-01-15T03:10:00;94382.25;;;5.48;72.62
71956;BME280;59829;50.562;6.258;2024-01-15T03:20:00;94369.69;;;5.46;72.67
71956;BME280;59829;50.562;6.258;2024-01-15T03:30:01;94374.75;;;5.46;72.85
71956;BME280;59829;50.562;6.258;2024-01-15T03:40:02;94372.91;;;5.48;72.76
71956;BME280;59829;50.562;6.258;2024-01-15T03:50:03;94377.97;;;5.48;72.81
71956;BME280;59829;50.562;6.258;2024-01-15T04:00:04;94366.22;;;5.47;72.97
71956;BME280;59829;50.562;6.258;2024-01-15T04:10:05;94360.47;;;5.45;72.92
71956;BME280;59829;50.562;6.258;2024-01-15T04:20:06;94347.75;;;5.45;72.97
71956;BME280;59829;50.562;6.258;2024-01-15T04:30:07;94331.59;;;5.46;72.97
71956;BME280;59829;50.562;6.258;2024-01-15T04:40:08;94325.56;;;5.47;73.00
71956;BME280;59829;50.562;6.258;2024-01-15T04:50:08;94328.78;;;5.49;73.14
71956;BME280;59829;50.562;6.258;2024-01-15T05:00:09;94320.22;;;5.50;73.18
71956;BME280;59829;50.562;6.258;2024-01-15T05:10:09;94311.69;;;5.51;73.09
71956;BME280;59829;50.562;6.258;2024-01-15T05:20:10;94307.53;;;5.50;73.16
71956;BME280;59829;50.562;6.258;2024-01-15T05:30:11;94310.06;;;5.50;73.35
71956;BME280;59829;50.562;6.258;2024-01-15T05:40:12;94305.38;;;5.45;73.23
71956;BME280;59829;50.562;6.258;2024-01-15T05:50:15;94311.41;;;5.44;73.44
71956;BME280;59829;50.562;6.258;2024-01-15T06:00:16;94310.59;;;5.44;73.46
71956;BME280;59829;50.562;6.258;2024-01-15T06:10:16;94302.97;;;5.44;73.50
71956;BME280;59829;50.562;6.258;2024-01-15T06:20:17;94302.84;;;5.45;73.48
71956;BME280;59829;50.562;6.258;2024-01-15T06:30:17;94303.66;;;5.46;73.59
71956;BME280;59829;50.562;6.258;2024-01-15T06:40:17;94297.78;;;5.45;73.63
71956;BME280;59829;50.562;6.258;2024-01-15T06:50:18;94290.69;;;5.49;73.74
71956;BME280;59829;50.562;6.258;2024-01-15T07:00:18;94290.03;;;5.47;73.73
71956;BME280;59829;50.562;6.258;2024-01-15T07:10:19;94280.66;;;5.48;73.84
71956;BME280;59829;50.562;6.258;2024-01-15T07:20:19;94280.78;;;5.46;73.86
71956;BME280;59829;50.562;6.258;2024-01-15T07:30:20;94282.53;;;5.45;73.84
71956;BME280;59829;50.562;6.258;2024-01-15T07:40:22;94279.44;;;5.42;73.89
71956;BME280;59829;50.562;6.258;2024-01-15T07:50:22;94287.06;;;5.42;73.84
71956;BME280;59829;50.562;6.258;2024-01-15T08:00:22;94293.22;;;5.39;73.97
71956;BME280;59829;50.562;6.258;2024-01-15T08:10:23;94291.72;;;5.37;73.92
71956;BME280;59829;50.562;6.258;2024-01-15T08:20:23;94285.69;;;5.38;73.92
71956;BME280;59829;50.562;6.258;2024-01-15T08:30:23;94284.09;;;5.37;73.91
71956;BME280;59829;50.562;6.258;2024-01-15T08:40:27;94293.31;;;5.38;73.98
71956;BME280;59829;50.562;6.258;2024-01-15T08:50:29;94293.56;;;5.35;74.01
71956;BME280;59829;50.562;6.258;2024-01-15T09:00:30;94304.66;;;5.34;74.01
71956;BME280;59829;50.562;6.258;2024-01-15T09:10:30;94309.75;;;5.34;74.01
71956;BME280;59829;50.562;6.258;2024-01-15T09:20:30;94322.56;;;5.32;73.92
71956;BME280;59829;50.562;6.258;2024-01-15T09:30:30;94316.00;;;5.30;74.11
71956;BME280;59829;50.562;6.258;2024-01-15T09:40:32;94315.22;;;5.29;73.89
71956;BME280;59829;50.562;6.258;2024-01-15T09:50:34;94306.78;;;5.29;73.92
71956;BME280;59829;50.562;6.258;2024-01-15T10:00:34;94309.31;;;5.29;73.90
71956;BME280;59829;50.562;6.258;2024-01-15T10:10:39;94298.50;;;5.27;74.07
71956;BME280;59829;50.562;6.258;2024-01-15T10:20:39;94312.78;;;5.28;74.10
71956;BME280;59829;50.562;6.258;2024-01-15T10:30:40;94324.81;;;5.26;74.01
71956;BME280;59829;50.562;6.258;2024-01-15T10:40:40;94308.91;;;5.24;74.09
71956;BME280;59829;50.562;6.258;2024-01-15T10:50:42;94301.56;;;5.21;73.99
71956;BME280;59829;50.562;6.258;2024-01-15T11:00:43;94315.84;;;5.22;74.04
71956;BME280;59829;50.562;6.258;2024-01-15T11:10:50;94310.06;;;5.20;73.96
71956;BME280;59829;50.562;6.258;2024-01-15T11:31:07;94319.56;;;5.18;73.91
71956;BME280;59829;50.562;6.258;2024-01-15T11:41:14;94339.84;;;5.18;73.96
71956;BME280;59829;50.562;6.258;2024-01-15T11:51:18;94318.88;;;5.15;73.81
71956;BME280;59829;50.562;6.258;2024-01-15T12:01:18;94332.38;;;5.16;73.77
71956;BME280;59829;50.562;6.258;2024-01-15T12:11:21;94326.22;;;5.19;73.78
71956;BME280;59829;50.562;6.258;2024-01-15T12:21:26;94320.22;;;5.20;73.79
71956;BME280;59829;50.562;6.258;2024-01-15T12:31:26;94327.63;;;5.23;73.75
71956;BME280;59829;50.562;6.258;2024-01-15T12:41:27;94336.84;;;5.24;73.74
71956;BME280;59829;50.562;6.258;2024-01-15T12:51:28;94343.66;;;5.23;73.82
71956;BME280;59829;50.562;6.258;2024-01-15T13:01:28;94352.63;;;5.58;74.41
71956;BME280;59829;50.562;6.258;2024-01-15T13:11:29;94330.41;;;5.50;73.76
71956;BME280;59829;50.562;6.258;2024-01-15T13:21:30;94340.81;;;5.47;73.66
71956;BME280;59829;50.562;6.258;2024-01-15T13:31:31;94351.50;;;5.51;73.74
71956;BME280;59829;50.562;6.258;2024-01-15T13:41:31;94350.44;;;5.53;73.73
71956;BME280;59829;50.562;6.258;2024-01-15T13:51:32;94348.59;;;5.55;73.87
71956;BME280;59829;50.562;6.258;2024-01-15T14:01:32;94378.84;;;5.58;73.92
71956;BME280;59829;50.562;6.258;2024-01-15T14:11:33;94380.44;;;5.59;73.97
71956;BME280;59829;50.562;6.258;2024-01-15T14:21:33;94403.97;;;5.61;74.05
71956;BME280;59829;50.562;6.258;2024-01-15T14:31:33;94409.88;;;5.62;74.06
71956;BME280;59829;50.562;6.258;2024-01-15T14:41:34;94422.44;;;5.63;74.12
71956;BME280;59829;50.562;6.258;2024-01-15T14:51:34;94442.63;;;5.65;74.32
71956;BME280;59829;50.562;6.258;2024-01-15T15:01:35;94461.22;;;5.65;74.24
71956;BME280;59829;50.562;6.258;2024-01-15T15:11:35;94463.09;;;5.63;74.29
71956;BME280;59829;50.562;6.258;2024-01-15T15:21:39;94480.75;;;5.65;74.33
71956;BME280;59829;50.562;6.258;2024-01-15T15:31:40;94492.63;;;5.64;74.45
71956;BME280;59829;50.562;6.258;2024-01-15T15:41:40;94511.22;;;5.65;74.38
71956;BME280;59829;50.562;6.258;2024-01-15T15:51:40;94536.50;;;5.66;74.42
71956;BME280;59829;50.562;6.258;2024-01-15T16:01:41;94560.97;;;5.67;74.47
71956;BME280;59829;50.562;6.258;2024-01-15T16:11:41;94560.84;;;5.69;74.37
71956;BME280;59829;50.562;6.258;2024-01-15T16:21:42;94579.44;;;5.69;74.48
71956;BME280;59829;50.562;6.258;2024-01-15T16:31:43;94582.31;;;5.76;74.55
71956;BME280;59829;50.562;6.258;2024-01-15T16:41:43;94609.19;;;5.58;74.98
71956;BME280;59829;50.562;6.258;2024-01-15T16:51:44;94611.38;;;5.51;75.87
71956;BME280;59829;50.562;6.258;2024-01-15T17:01:44;94624.34;;;5.48;75.98
71956;BME280;59829;50.562;6.258;2024-01-15T17:11:44;94632.69;;;5.39;75.76
71956;BME280;59829;50.562;6.258;2024-01-15T17:21:45;94652.09;;;5.29;75.50
71956;BME280;59829;50.562;6.258;2024-01-15T17:31:46;94641.38;;;5.25;76.23
71956;BME280;59829;50.562;6.258;2024-01-15T17:41:46;94665.78;;;5.37;76.85
71956;BME280;59829;50.562;6.258;2024-01-15T17:51:46;94672.41;;;5.29;77.14
71956;BME280;59829;50.562;6.258;2024-01-15T18:01:47;94680.03;;;5.18;77.55
71956;BME280;59829;50.562;6.258;2024-01-15T18:11:47;94682.59;;;5.06;77.57
71956;BME280;59829;50.562;6.258;2024-01-15T18:41:01;94724.66;;;4.18;79.45
71956;BME280;59829;50.562;6.258;2024-01-15T18:51:04;94739.94;;;4.40;79.42
71956;BME280;59829;50.562;6.258;2024-01-15T19:01:04;94748.72;;;4.59;79.98
71956;BME280;59829;50.562;6.258;2024-01-15T19:11:04;94753.13;;;4.68;80.29
71956;BME280;59829;50.562;6.258;2024-01-15T19:21:05;94759.59;;;4.72;80.55
71956;BME280;59829;50.562;6.258;2024-01-15T19:31:05;94764.69;;;4.72;80.55
71956;BME280;59829;50.562;6.258;2024-01-15T19:41:06;94785.22;;;4.69;81.02
71956;BME280;59829;50.562;6.258;2024-01-15T19:51:06;94780.31;;;4.66;81.12
71956;BME280;59829;50.562;6.258;2024-01-15T20:01:06;94790.69;;;4.63;81.52
71956;BME280;59829;50.562;6.258;2024-01-15T20:11:07;94794.16;;;4.62;81.74
71956;BME280;59829;50.562;6.258;2024-01-15T20:21:07;94808.69;;;4.60;81.90
71956;BME280;59829;50.562;6.258;2024-01-15T20:31:08;94813.06;;;4.58;81.98
71956;BME280;59829;50.562;6.258;2024-01-15T20:41:09;94818.84;;;4.60;82.41
71956;BME280;59829;50.562;6.258;2024-01-15T20:51:10;94822.97;;;4.61;82.73
71956;BME280;59829;50.562;6.258;2024-01-15T21:01:13;94821.38;;;4.60;82.81
71956;BME280;59829;50.562;6.258;2024-01-15T21:11:15;94829.91;;;4.59;82.92
71956;BME280;59829;50.562;6.258;2024-01-15T21:21:16;94833.47;;;4.56;83.11
71956;BME280;59829;50.562;6.258;2024-01-15T21:31:16;94834.38;;;4.55;83.16
71956;BME280;59829;50.562;6.258;2024-01-15T21:41:16;94841.28;;;4.53;83.29
71956;BME280;59829;50.562;6.258;2024-01-15T21:51:17;94843.94;;;4.51;83.25
71956;BME280;59829;50.562;6.258;2024-01-15T22:01:17;94854.28;;;4.48;83.53
71956;BME280;59829;50.562;6.258;2024-01-15T22:11:18;94851.75;;;4.48;83.72
71956;BME280;59829;50.562;6.258;2024-01-15T22:21:19;94864.22;;;4.51;83.74
71956;BME280;59829;50.562;6.258;2024-01-15T22:31:19;94876.19;;;4.49;83.85
71956;BME280;59829;50.562;6.258;2024-01-15T22:41:19;94881.38;;;4.48;84.07
71956;BME280;59829;50.562;6.258;2024-01-15T22:51:20;94886.34;;;4.49;84.13
71956;BME280;59829;50.562;6.258;2024-01-15T23:01:20;94906.63;;;4.49;84.17
71956;BME280;59829;50.562;6.258;2024-01-15T23:11:21;94921.84;;;4.49;84.15
71956;BME280;59829;50.562;6.258;2024-01-15T23:21:23;94910.78;;;4.50;84.44
71956;BME280;59829;50.562;6.258;2024-01-15T23:31:23;94926.91;;;4.49;84.56
71956;BME280;59829;50.562;6.258;2024-01-15T23:41:24;94919.28;;;4.49;84.44
71956;BME280;59829;50.562;6.258;2024-01-15T23:51:24;94925.28;;;4.48;84.62
